Time;durP1;ratioP1;P1;durP2;ratioP2;P2;SDS_P1;SDS_P2;PMS_P1;PMS_P2;Temp;Humidity;BMP_temperature;BMP_pressure;BME280_temperature;BME280_humidity;BME280_pressure;Samples;Min_cycle;Max_cycle;Signal;HPM_P1;HPM_P2
2023/04/19 00:02:41;;;;;;;11.50;9.70;;;;;;;9.59;54.29;100239.06;10433331;28;20232;-39
2023/04/19 00:07:43;;;;;;;12.80;10.40;;;;;;;9.36;54.44;100217.50;10434196;28;20603;-39
2023/04/19 00:12:55;;;;;;;11.73;9.63;;;;;;;9.08;54.04;100191.09;10441538;28;20581;-39
2023/04/19 00:18:02;;;;;;;11.80;9.70;;;;;;;11.15;51.59;100328.84;10437053;28;20787;-40
2023/04/19 00:23:08;;;;;;;13.27;10.33;;;;;;;10.03;53.12;100259.28;10445969;28;20615;-41
2023/04/19 00:28:12;;;;;;;11.57;9.93;;;;;;;9.26;54.93;100204.28;10440457;28;20242;-40
2023/04/19 00:33:14;;;;;;;11.40;9.53;;;;;;;9.20;53.32;100196.97;10442521;28;20315;-40
2023/04/19 00:38:20;;;;;;;14.30;10.03;;;;;;;9.39;54.04;100235.88;10432700;28;20209;-39
2023/04/19 00:43:35;;;;;;;12.97;9.73;;;;;;;10.18;52.55;100267.44;10436793;28;20219;-39
2023/04/19 00:48:40;;;;;;;13.83;9.70;;;;;;;9.67;52.65;100228.38;10451871;28;20747;-40
2023/04/19 00:53:51;;;;;;;13.30;9.97;;;;;;;10.22;52.04;100258.06;10458884;28;20238;-39
2023/04/19 00:58:55;;;;;;;10.57;9.17;;;;;;;10.60;51.89;100298.44;10454642;28;20913;-39
2023/04/19 01:04:07;;;;;;;11.00;9.13;;;;;;;8.81;54.50;100166.31;10460961;28;20354;-39
2023/04/19 01:09:26;;;;;;;12.50;9.53;;;;;;;9.41;53.68;100233.84;10479934;28;20224;-39
2023/04/19 01:14:34;;;;;;;11.73;9.40;;;;;;;9.57;53.07;100236.53;10489226;28;20261;-39
2023/04/19 01:19:41;;;;;;;11.10;9.87;;;;;;;9.21;55.03;100215.50;10491038;28;20227;-39
2023/04/19 01:24:45;;;;;;;11.67;9.47;;;;;;;9.21;54.16;100212.81;10485149;28;20316;-39
2023/04/19 01:30:00;;;;;;;13.60;10.53;;;;;;;10.80;51.91;100309.59;10481864;28;20228;-39
2023/04/19 01:35:14;;;;;;;11.60;9.33;;;;;;;9.25;53.62;100212.47;10457426;28;20343;-39
2023/04/19 01:40:16;;;;;;;11.83;8.90;;;;;;;9.61;53.64;100253.06;10455584;28;20326;-39
2023/04/19 01:45:18;;;;;;;11.60;10.27;;;;;;;10.54;52.10;100277.72;10452230;28;20851;-39
2023/04/19 01:50:23;;;;;;;11.70;9.67;;;;;;;10.21;52.53;100273.28;10451304;28;20721;-39
2023/04/19 01:55:33;;;;;;;10.37;9.10;;;;;;;9.34;54.08;100219.50;10453953;28;20229;-39
2023/04/19 02:00:41;;;;;;;11.53;9.70;;;;;;;9.64;53.27;100225.19;10438490;28;20648;-39
2023/04/19 02:05:43;;;;;;;11.50;9.47;;;;;;;10.13;52.70;100258.06;10446405;28;20495;-39
2023/04/19 02:10:47;;;;;;;12.47;9.93;;;;;;;9.74;53.49;100237.38;10442706;28;20204;-37
2023/04/19 02:15:49;;;;;;;11.70;8.93;;;;;;;9.40;54.45;100202.81;10448846;28;20723;-40
2023/04/19 02:20:51;;;;;;;11.63;9.13;;;;;;;10.76;52.03;100285.00;10440239;28;20223;-39
2023/04/19 02:25:55;;;;;;;13.90;10.40;;;;;;;9.68;53.23;100227.34;10441088;28;20232;-39
2023/04/19 02:31:04;;;;;;;11.13;9.43;;;;;;;10.00;52.60;100240.88;10445260;28;20541;-39
2023/04/19 02:36:13;;;;;;;10.90;9.70;;;;;;;8.72;54.38;100131.78;10439186;28;20305;-40
2023/04/19 02:41:24;;;;;;;9.63;8.63;;;;;;;9.85;52.80;100214.00;10437313;28;20913;-39
2023/04/19 02:46:35;;;;;;;9.77;8.77;;;;;;;9.71;52.22;100188.78;10439847;28;20266;-39
2023/04/19 02:51:50;;;;;;;10.70;9.17;;;;;;;10.22;52.66;100253.53;10490817;28;20230;-39
2023/04/19 02:57:02;;;;;;;12.30;9.33;;;;;;;11.04;51.21;100293.44;10480759;28;20230;-39
2023/04/19 03:02:11;;;;;;;13.63;9.27;;;;;;;10.58;51.64;100249.59;10474427;28;20215;-39
2023/04/19 03:07:47;;;;;;;10.70;9.23;;;;;;;10.65;51.20;100256.75;10442659;28;20247;-39
2023/04/19 03:13:16;;;;;;;;;;;;;;;;;;;;;
2023/04/19 03:18:18;;;;;;;12.50;9.13;;;;;;;9.84;51.81;100196.28;10470304;28;20768;-38
2023/04/19 03:23:29;;;;;;;11.03;9.07;;;;;;;10.18;51.48;100193.38;10493231;28;20239;-38
2023/04/19 03:28:39;;;;;;;11.10;8.93;;;;;;;11.00;51.00;100286.75;10491247;28;20234;-40
2023/04/19 03:33:54;;;;;;;12.30;9.03;;;;;;;11.45;49.77;100301.22;10484413;28;20234;-38
2023/04/19 03:38:56;;;;;;;10.90;9.03;;;;;;;9.57;52.58;100159.06;10490123;28;20322;-38
2023/04/19 03:44:07;;;;;;;11.90;8.97;;;;;;;10.47;52.01;100246.28;10493667;28;20349;-38
2023/04/19 03:49:12;;;;;;;10.30;9.20;;;;;;;10.06;52.07;100213.47;10498574;28;20297;-38
2023/04/19 03:54:27;;;;;;;9.90;8.77;;;;;;;9.08;53.00;100128.84;10496271;28;20716;-39
2023/04/19 03:59:48;;;;;;;;;;;;;;;;;;;;;
2023/04/19 04:04:53;;;;;;;11.70;8.77;;;;;;;10.83;51.04;100247.66;10496872;28;20230;-39
2023/04/19 04:09:55;;;;;;;9.43;8.43;;;;;;;9.37;53.56;100145.22;10492901;28;20292;-39
2023/04/19 04:14:57;;;;;;;11.50;8.80;;;;;;;9.75;52.87;100185.59;10480576;28;20227;-38
2023/04/19 04:20:07;;;;;;;10.17;8.13;;;;;;;9.70;51.42;100157.69;10501983;28;20227;-39
2023/04/19 04:25:09;;;;;;;12.60;9.90;;;;;;;9.69;52.66;100185.44;10505275;28;20237;-39
2023/04/19 04:30:11;;;;;;;9.30;8.00;;;;;;;10.59;51.73;100243.25;10497596;28;20594;-38
2023/04/19 04:35:14;;;;;;;10.50;8.47;;;;;;;9.49;52.52;100164.41;10497388;28;20716;-38
2023/04/19 04:40:18;;;;;;;9.60;7.77;;;;;;;10.96;50.23;100247.94;10451953;28;20285;-39
2023/04/19 04:45:21;;;;;;;9.73;8.07;;;;;;;10.51;51.03;100234.25;10444956;28;20228;-38
2023/04/19 04:50:33;;;;;;;10.47;8.23;;;;;;;10.01;51.72;100203.28;10442004;28;20237;-38
2023/04/19 04:55:36;;;;;;;9.63;7.80;;;;;;;11.12;50.36;100276.50;10441760;28;20319;-38
2023/04/19 05:00:40;;;;;;;8.97;7.80;;;;;;;9.75;52.16;100182.94;10459072;28;20233;-38
2023/04/19 05:05:45;;;;;;;8.13;6.97;;;;;;;10.87;50.46;100240.97;10486334;28;20227;-38
2023/04/19 05:10:51;;;;;;;8.63;7.47;;;;;;;10.19;51.69;100215.59;10492150;28;20232;-39
2023/04/19 05:15:57;;;;;;;8.40;7.40;;;;;;;10.84;51.21;100266.25;10487848;28;20301;-38
2023/04/19 05:21:02;;;;;;;7.80;6.83;;;;;;;11.43;49.49;100289.84;10481624;28;20254;-39
2023/04/19 05:26:06;;;;;;;10.47;7.63;;;;;;;10.67;50.71;100236.00;10490059;28;20235;-38
2023/04/19 05:31:08;;;;;;;8.43;7.33;;;;;;;10.49;49.99;100225.53;10485720;28;20238;-38
2023/04/19 05:36:22;;;;;;;8.77;7.87;;;;;;;9.61;51.67;100166.75;10482876;28;20288;-38
2023/04/19 05:41:45;;;;;;;10.60;7.37;;;;;;;10.44;51.74;100251.97;10482726;28;20230;-38
2023/04/19 05:46:52;;;;;;;9.00;7.63;;;;;;;10.79;50.65;100262.44;10481052;28;20741;-38
2023/04/19 05:51:56;;;;;;;10.27;7.67;;;;;;;10.12;51.67;100223.47;10472128;28;20235;-38
2023/04/19 05:57:01;;;;;;;9.13;7.83;;;;;;;11.31;49.72;100290.44;10481719;28;20243;-39
2023/04/19 06:02:10;;;;;;;8.77;7.80;;;;;;;10.35;51.66;100252.19;10481558;28;20314;-38
2023/04/19 06:07:18;;;;;;;8.63;7.63;;;;;;;11.09;50.22;100274.16;10484873;28;20344;-38
2023/04/19 06:12:36;;;;;;;11.63;8.10;;;;;;;9.96;52.30;100219.00;10485247;28;20211;-38
2023/04/19 06:17:42;;;;;;;10.20;8.40;;;;;;;9.92;52.54;100231.03;10462398;28;20238;-38
2023/04/19 06:22:57;;;;;;;9.43;8.30;;;;;;;10.44;51.79;100260.00;10485389;28;20218;-39
2023/04/19 06:27:59;;;;;;;9.07;8.00;;;;;;;9.42;52.28;100167.94;10481286;28;20241;-38
2023/04/19 06:33:10;;;;;;;9.30;7.53;;;;;;;10.87;50.93;100263.22;10480265;28;20246;-38
2023/04/19 06:38:20;;;;;;;10.47;7.47;;;;;;;11.41;50.52;100310.63;10488268;28;20572;-38
2023/04/19 06:43:23;;;;;;;9.77;7.70;;;;;;;10.49;51.20;100264.84;10472908;28;20231;-39
2023/04/19 06:48:26;;;;;;;9.97;8.20;;;;;;;10.12;51.98;100245.72;10482661;28;20326;-38
2023/04/19 06:53:35;;;;;;;8.80;7.77;;;;;;;10.88;51.28;100288.13;10486079;28;20231;-38
2023/04/19 06:58:49;;;;;;;8.30;7.30;;;;;;;10.07;52.44;100239.19;10486670;28;20243;-40
2023/04/19 07:04:01;;;;;;;9.50;8.23;;;;;;;10.29;51.58;100229.63;10477921;28;20582;-38
2023/04/19 07:09:05;;;;;;;9.20;7.50;;;;;;;11.87;49.58;100336.66;10480871;28;20311;-38
2023/04/19 07:14:09;;;;;;;8.97;7.57;;;;;;;10.86;50.95;100258.84;10480056;28;20250;-38
2023/04/19 07:19:22;;;;;;;9.00;7.80;;;;;;;11.32;50.51;100287.59;10484841;28;20277;-38
2023/04/19 07:24:26;;;;;;;10.30;7.87;;;;;;;10.62;51.41;100238.38;10494957;28;20739;-38
2023/04/19 07:29:40;;;;;;;8.77;7.87;;;;;;;11.55;49.67;100308.22;10488228;28;20227;-38
2023/04/19 07:34:44;;;;;;;11.53;7.93;;;;;;;11.22;49.52;100244.97;10483819;28;20235;-38
2023/04/19 07:39:46;;;;;;;10.00;7.80;;;;;;;11.95;50.28;100300.91;10492325;28;20328;-38
2023/04/19 07:44:48;;;;;;;8.90;7.17;;;;;;;12.55;49.18;100332.22;10493329;28;20318;-38
2023/04/19 07:49:57;;;;;;;10.23;8.70;;;;;;;11.51;49.18;100218.47;10488368;28;20231;-38
2023/04/19 07:55:01;;;;;;;8.13;7.07;;;;;;;11.31;49.87;100207.41;10487100;28;20262;-38
2023/04/19 08:00:11;;;;;;;9.53;7.53;;;;;;;11.56;49.42;100224.13;10488112;28;20219;-39
2023/04/19 08:05:25;;;;;;;9.10;7.57;;;;;;;12.98;47.90;100317.28;10490015;28;20248;-38
2023/04/19 08:10:35;;;;;;;8.90;7.43;;;;;;;12.87;47.97;100299.78;10485393;28;20276;-39
2023/04/19 08:15:41;;;;;;;7.73;6.67;;;;;;;13.20;46.75;100321.69;10487796;28;20228;-38
2023/04/19 08:20:56;;;;;;;10.43;6.90;;;;;;;11.88;48.70;100208.75;10486677;28;20852;-38
2023/04/19 08:25:58;;;;;;;9.20;7.57;;;;;;;13.21;47.35;100272.31;10490026;28;20327;-38
2023/04/19 08:31:07;;;;;;;8.63;6.87;;;;;;;13.01;46.68;100261.31;10487567;28;20235;-39
2023/04/19 08:36:15;;;;;;;8.97;7.07;;;;;;;12.32;47.80;100208.78;10454857;28;20316;-39
2023/04/19 08:41:27;;;;;;;9.40;7.23;;;;;;;13.54;46.94;100285.28;10487841;28;20223;-39
2023/04/19 08:46:34;;;;;;;7.70;6.10;;;;;;;13.22;46.25;100233.63;10488713;28;20300;-39
2023/04/19 08:51:42;;;;;;;8.20;7.10;;;;;;;13.56;45.30;100248.25;10484739;28;20673;-39
2023/04/19 08:56:48;;;;;;;7.43;6.57;;;;;;;13.87;44.97;100263.22;10484913;28;20232;-39
2023/04/19 09:01:50;;;;;;;10.13;6.70;;;;;;;13.25;45.47;100174.13;10481950;28;20230;-39
2023/04/19 09:06:53;;;;;;;8.83;6.93;;;;;;;14.89;44.13;100252.91;10492085;28;20234;-39
2023/04/19 09:11:56;;;;;;;9.30;6.53;;;;;;;15.29;44.39;100253.03;10490725;28;20746;-39
2023/04/19 09:17:13;;;;;;;9.40;6.77;;;;;;;13.88;44.76;100119.63;10469084;28;20259;-38
2023/04/19 09:22:41;;;;;;;7.57;6.37;;;;;;;13.20;46.12;100057.53;10486381;28;20223;-39
2023/04/19 09:27:48;;;;;;;8.97;7.63;;;;;;;13.86;45.62;100097.47;10487074;28;20293;-39
2023/04/19 09:32:49;;;;;;;9.70;7.13;;;;;;;13.25;47.17;100039.78;10470085;28;20848;-39
2023/04/19 09:37:59;;;;;;;8.80;7.30;;;;;;;14.72;45.50;100129.31;10462813;28;20224;-39
2023/04/19 09:43:06;;;;;;;9.03;7.00;;;;;;;14.62;44.66;100131.56;10460816;28;20245;-39
2023/04/19 09:48:37;;;;;;;10.10;6.93;;;;;;;14.27;45.43;100096.66;10461324;28;20322;-39
2023/04/19 09:53:43;;;;;;;8.23;6.77;;;;;;;14.84;44.30;100134.13;10482536;28;20262;-39
2023/04/19 09:58:48;;;;;;;8.67;7.23;;;;;;;13.67;45.04;100032.63;10481255;28;20230;-39
2023/04/19 10:04:05;;;;;;;10.20;7.60;;;;;;;13.50;46.10;100033.97;10485613;28;20350;-39
2023/04/19 10:09:25;;;;;;;9.73;6.93;;;;;;;13.10;46.76;99999.56;10484924;28;20250;-39
2023/04/19 10:14:35;;;;;;;9.57;7.43;;;;;;;13.25;46.14;100002.16;10484062;28;20248;-39
2023/04/19 10:19:39;;;;;;;8.27;6.90;;;;;;;14.09;44.88;100053.31;10483708;28;20608;-39
2023/04/19 10:25:10;;;;;;;8.97;7.33;;;;;;;13.07;46.95;99997.25;10483480;28;20227;-39
2023/04/19 10:30:22;;;;;;;8.77;7.77;;;;;;;14.03;45.46;100025.31;10476642;28;20226;-39
2023/04/19 10:35:42;;;;;;;7.77;6.97;;;;;;;13.50;46.45;100000.88;10483723;28;20246;-38
2023/04/19 10:40:50;;;;;;;8.73;7.50;;;;;;;13.09;47.20;99984.50;10475731;28;20972;-38
2023/04/19 10:45:52;;;;;;;8.47;6.83;;;;;;;14.58;44.97;100044.16;10456664;28;20685;-39
2023/04/19 10:57:26;;;;;;;;;;;;;;;;;;;;;
2023/04/19 11:06:51;;;;;;;7.90;7.00;;;;;;;11.21;51.50;100031.66;10563026;27;21078;-66
2023/04/19 11:12:16;;;;;;;7.83;6.90;;;;;;;11.94;50.06;100017.63;10428394;28;20243;-66
2023/04/19 11:34:56;;;;;;;8.17;6.70;;;;;;;12.83;49.01;100011.16;10404303;28;20413;-68
2023/04/19 11:40:36;;;;;;;8.50;6.17;;;;;;;13.05;48.27;100017.31;10337133;28;20826;-68
2023/04/19 11:46:32;;;;;;;7.77;6.13;;;;;;;11.64;49.18;99902.41;10218727;28;20246;-69
2023/04/19 11:52:13;;;;;;;6.93;6.07;;;;;;;12.86;48.49;99998.16;10107554;29;20745;-68
2023/04/19 12:04:05;;;;;;;6.47;5.33;;;;;;;12.63;48.35;99982.25;10109071;29;20413;-68
2023/04/19 12:15:06;;;;;;;7.83;6.80;;;;;;;11.16;52.44;99910.03;10238780;28;20669;-69
2023/04/19 12:20:27;;;;;;;;;;;;;;;;;;;;;
2023/04/19 12:26:06;;;;;;;10.43;9.33;;;;;;;9.37;57.13;99822.03;10282729;28;20330;-68
2023/04/19 12:31:08;;;;;;;9.67;8.53;;;;;;;10.27;55.22;99890.09;10275497;28;20238;-68
2023/04/19 12:36:10;;;;;;;12.80;9.63;;;;;;;9.74;56.22;99859.75;10272642;28;20229;-68
2023/04/19 12:41:12;;;;;;;11.93;8.30;;;;;;;10.43;55.46;99910.56;10277069;28;20241;-68
2023/04/19 12:46:13;;;;;;;9.73;8.70;;;;;;;11.54;52.90;99961.66;10273243;28;20231;-68
2023/04/19 12:51:15;;;;;;;12.17;8.33;;;;;;;10.87;53.15;99920.53;10282274;28;20222;-68
2023/04/19 12:56:17;;;;;;;10.33;8.27;;;;;;;11.45;52.97;99955.53;10360300;28;20255;-69
2023/04/19 13:01:19;;;;;;;10.47;8.10;;;;;;;12.73;50.53;100011.47;10396704;28;20231;-68
2023/04/19 13:06:20;;;;;;;9.33;8.33;;;;;;;11.52;52.07;99920.78;10398690;28;20794;-69
2023/04/19 13:11:22;;;;;;;10.13;8.20;;;;;;;10.57;53.54;99894.72;10395011;28;20594;-68
2023/04/19 13:16:24;;;;;;;13.13;8.10;;;;;;;11.11;52.86;99926.63;10398700;28;20244;-69
2023/04/19 13:21:26;;;;;;;9.50;8.10;;;;;;;10.98;50.94;99865.69;10401613;28;20220;-68
2023/04/19 13:26:28;;;;;;;12.17;8.40;;;;;;;10.08;53.45;99853.19;10391105;28;20233;-68
2023/04/19 13:31:30;;;;;;;8.90;7.73;;;;;;;10.92;51.90;99911.97;10392948;28;20220;-68
2023/04/19 13:36:31;;;;;;;9.13;7.07;;;;;;;12.31;49.84;99962.94;10386134;28;20221;-69
2023/04/19 13:41:33;;;;;;;9.33;7.50;;;;;;;11.16;50.86;99904.66;10399737;28;20323;-69
2023/04/19 13:46:34;;;;;;;10.63;7.07;;;;;;;11.90;50.53;99911.78;10390927;28;20229;-69
2023/04/19 13:51:36;;;;;;;7.77;6.90;;;;;;;11.37;51.32;99877.09;10391303;28;20698;-68
2023/04/19 13:56:50;;;;;;;10.47;7.93;;;;;;;11.64;51.05;99891.69;10394133;28;20801;-69
2023/04/19 14:01:54;;;;;;;9.80;7.77;;;;;;;11.03;51.81;99849.06;10382350;28;20263;-68
2023/04/19 14:06:56;;;;;;;9.27;7.57;;;;;;;11.85;50.20;99898.13;10391151;28;21003;-67
2023/04/19 14:11:58;;;;;;;9.13;6.87;;;;;;;11.38;51.66;99868.88;10387068;28;20244;-68
2023/04/19 14:17:00;;;;;;;7.40;6.60;;;;;;;12.05;50.31;99883.03;10397825;28;20772;-69
2023/04/19 14:22:02;;;;;;;7.73;6.93;;;;;;;11.90;50.98;99868.88;10383776;28;20319;-70
2023/04/19 14:27:04;;;;;;;7.73;6.60;;;;;;;11.86;51.10;99855.03;10398029;28;20262;-69
2023/04/19 14:32:13;;;;;;;7.40;6.47;;;;;;;12.32;50.82;99904.75;10394261;28;20250;-69
2023/04/19 14:37:27;;;;;;;9.03;7.43;;;;;;;11.62;52.25;99846.31;10398313;28;20263;-69
2023/04/19 14:42:29;;;;;;;9.27;8.27;;;;;;;11.93;53.35;99860.41;10401697;28;20239;-68
2023/04/19 14:47:30;;;;;;;10.67;9.57;;;;;;;12.45;52.39;99885.25;10395036;28;20235;-68
2023/04/19 14:52:33;;;;;;;10.03;8.90;;;;;;;11.44;54.18;99821.78;10396305;28;20711;-68
2023/04/19 14:57:35;;;;;;;14.90;11.17;;;;;;;11.97;52.25;99851.81;10399018;28;20228;-67
2023/04/19 15:02:36;;;;;;;14.70;11.27;;;;;;;12.13;51.85;99848.06;10400062;28;20235;-67
2023/04/19 15:07:38;;;;;;;10.63;8.73;;;;;;;11.89;51.37;99821.63;10392062;28;20325;-66
2023/04/19 15:12:40;;;;;;;13.33;9.40;;;;;;;11.91;51.93;99847.22;10395427;28;20275;-66
2023/04/19 15:17:41;;;;;;;16.63;10.63;;;;;;;12.69;50.87;99890.22;10398646;28;20220;-69
2023/04/19 15:22:43;;;;;;;10.00;8.23;;;;;;;12.53;50.01;99869.03;10395425;28;20237;-68
2023/04/19 15:27:45;;;;;;;14.23;10.17;;;;;;;11.81;52.06;99809.16;10395158;28;20642;-67
2023/04/19 15:32:47;;;;;;;10.37;9.17;;;;;;;12.10;51.02;99829.66;10386450;28;20849;-66
2023/04/19 15:37:48;;;;;;;11.13;9.07;;;;;;;12.16;51.49;99858.41;10392207;28;20252;-65
2023/04/19 15:42:50;;;;;;;13.73;10.17;;;;;;;12.73;50.07;99885.28;10388648;28;20624;-66
2023/04/19 15:47:52;;;;;;;11.43;8.33;;;;;;;12.94;50.26;99892.44;10393630;28;20251;-66
2023/04/19 15:52:53;;;;;;;10.93;8.53;;;;;;;11.91;51.72;99796.28;10407258;28;20233;-67
2023/04/19 15:57:55;;;;;;;11.67;8.83;;;;;;;11.86;51.66;99817.50;10386127;28;20231;-67
2023/04/19 16:02:57;;;;;;;10.83;9.10;;;;;;;12.11;51.75;99820.56;10399118;28;20247;-67
2023/04/19 16:08:04;;;;;;;12.87;8.70;;;;;;;11.11;52.79;99741.84;10401807;28;20585;-67
2023/04/19 16:13:06;;;;;;;10.47;8.63;;;;;;;11.01;53.81;99762.75;10407019;28;20255;-67
2023/04/19 16:18:08;;;;;;;10.00;8.57;;;;;;;11.20;53.08;99762.16;10404037;28;20231;-67
2023/04/19 16:23:10;;;;;;;14.23;10.10;;;;;;;11.37;52.82;99773.47;10402304;28;20228;-68
2023/04/19 16:28:11;;;;;;;11.10;8.53;;;;;;;12.55;51.32;99840.13;10399882;28;20235;-66
2023/04/19 16:33:14;;;;;;;10.07;7.57;;;;;;;12.18;51.82;99816.09;10404079;28;20711;-67
2023/04/19 16:38:16;;;;;;;9.13;7.60;;;;;;;12.64;51.44;99865.00;10395876;28;20228;-69
2023/04/19 16:43:19;;;;;;;7.53;6.27;;;;;;;11.88;49.97;99826.16;10395771;28;20225;-68
2023/04/19 16:48:21;;;;;;;4.10;3.20;;;;;;;10.67;46.62;99794.41;10400365;28;20847;-67
2023/04/19 16:53:23;;;;;;;3.30;3.00;;;;;;;10.40;46.41;99779.00;10400327;28;20227;-65
2023/04/19 16:58:25;;;;;;;3.60;2.90;;;;;;;11.05;46.71;99823.78;10396178;28;20229;-65
2023/04/19 17:03:29;;;;;;;3.83;2.67;;;;;;;11.01;46.39;99822.47;10396963;28;20243;-65
2023/04/19 17:08:31;;;;;;;4.07;2.87;;;;;;;10.72;46.97;99817.94;10401353;28;20237;-64
2023/04/19 17:13:33;;;;;;;4.10;3.13;;;;;;;11.02;47.24;99845.56;10405370;28;20224;-65
2023/04/19 17:18:34;;;;;;;3.73;3.20;;;;;;;10.60;46.99;99809.56;10402959;28;20228;-64
2023/04/19 17:23:36;;;;;;;3.10;2.90;;;;;;;10.21;47.15;99788.38;10396277;28;20228;-65
2023/04/19 17:28:38;;;;;;;4.00;3.30;;;;;;;11.09;46.67;99859.06;10402885;28;20233;-64
2023/04/19 17:33:39;;;;;;;3.77;3.23;;;;;;;11.37;45.27;99850.31;10400031;28;20302;-67
2023/04/19 17:38:41;;;;;;;5.60;3.43;;;;;;;12.05;44.97;99883.03;10400856;28;20715;-65
2023/04/19 17:43:43;;;;;;;3.77;3.27;;;;;;;12.13;45.12;99879.38;10400059;28;20224;-65
2023/04/19 17:48:45;;;;;;;3.37;3.07;;;;;;;12.31;44.00;99870.88;10397824;28;20594;-64
2023/04/19 17:53:47;;;;;;;5.20;3.03;;;;;;;12.91;43.35;99895.53;10400010;28;20255;-66
2023/04/19 17:58:48;;;;;;;5.00;3.27;;;;;;;;;;10399368;28;20728;-65
2023/04/19 18:03:50;;;;;;;6.90;3.50;;;;;;;11.66;44.06;99785.13;10394420;28;20736;-65
2023/04/19 18:08:52;;;;;;;5.27;3.47;;;;;;;12.03;44.28;99798.44;10397936;28;20228;-65
2023/04/19 18:13:54;;;;;;;4.27;3.10;;;;;;;12.81;43.92;99865.50;10398893;28;20598;-63
2023/04/19 18:18:56;;;;;;;3.60;3.30;;;;;;;10.97;45.42;99737.38;10394206;28;20241;-65
2023/04/19 18:23:58;;;;;;;4.00;3.30;;;;;;;12.58;44.34;99860.41;10401169;28;20846;-63
2023/04/19 18:28:59;;;;;;;5.10;3.70;;;;;;;10.61;46.76;99755.00;10401518;28;20359;-68
2023/04/19 18:34:01;;;;;;;3.90;3.50;;;;;;;11.83;44.92;99828.59;10403190;28;20267;-65
2023/04/19 18:39:03;;;;;;;4.73;3.90;;;;;;;10.43;45.46;99734.00;10402128;28;20240;-65
2023/04/19 18:44:04;;;;;;;6.17;3.33;;;;;;;11.91;43.20;99849.06;10366263;28;20241;-64
2023/04/19 18:49:26;;;;;;;4.47;3.53;;;;;;;10.87;44.33;99791.22;10394367;28;20819;-66
2023/04/19 18:54:27;;;;;;;6.50;3.83;;;;;;;11.34;43.48;99845.31;10401204;28;20279;-68
2023/04/19 18:59:29;;;;;;;4.37;3.33;;;;;;;10.92;43.67;99818.25;10393523;28;20274;-65
2023/04/19 19:04:31;;;;;;;4.67;3.20;;;;;;;10.63;43.85;99811.00;10374759;28;20804;-65
2023/04/19 19:09:53;;;;;;;3.73;3.20;;;;;;;9.19;43.30;99683.47;10393520;28;20335;-65
2023/04/19 19:14:57;;;;;;;3.27;2.83;;;;;;;10.09;41.50;99817.38;10389676;28;20244;-67
2023/04/19 19:19:59;;;;;;;2.83;2.50;;;;;;;9.27;40.63;99751.19;10390513;28;20254;-63
2023/04/19 19:25:01;;;;;;;4.47;2.90;;;;;;;9.67;40.72;99816.88;10398723;28;20274;-64
2023/04/19 19:30:04;;;;;;;3.67;2.70;;;;;;;9.24;40.01;99791.59;10400311;28;20232;-63
2023/04/19 19:35:09;;;;;;;4.97;2.50;;;;;;;8.56;40.00;99706.66;10392482;28;20229;-67
2023/04/19 19:40:11;;;;;;;3.43;2.60;;;;;;;9.24;39.68;99805.75;10352402;28;20251;-65
2023/04/19 19:45:12;;;;;;;2.67;2.47;;;;;;;9.20;39.17;99820.47;10385855;28;20937;-67
2023/04/19 19:50:14;;;;;;;2.53;2.30;;;;;;;8.72;39.92;99761.75;10403821;28;20290;-65
2023/04/19 19:55:19;;;;;;;3.53;2.53;;;;;;;8.82;40.03;99783.72;10405239;28;20232;-65
2023/04/19 20:00:20;;;;;;;4.20;3.17;;;;;;;8.59;39.82;99761.47;10401995;28;20251;-68
2023/04/19 20:05:26;;;;;;;2.70;2.50;;;;;;;8.78;39.33;99781.59;10399672;28;20279;-68
2023/04/19 20:10:28;;;;;;;3.00;2.63;;;;;;;8.86;39.43;99800.25;10399902;28;20271;-66
2023/04/19 20:15:29;;;;;;;3.63;2.80;;;;;;;8.49;39.96;99756.34;10413244;28;20592;-67
2023/04/19 20:20:31;;;;;;;2.80;2.60;;;;;;;9.51;39.27;99873.88;10388487;28;20224;-68
2023/04/19 20:25:33;;;;;;;3.43;3.00;;;;;;;9.15;39.63;99830.84;10405019;28;20733;-69
2023/04/19 20:30:35;;;;;;;2.70;2.50;;;;;;;7.78;40.75;99665.53;10397449;28;20674;-67
2023/04/19 20:35:37;;;;;;;3.40;3.10;;;;;;;8.63;40.49;99786.81;10402772;28;20587;-64
2023/04/19 20:40:39;;;;;;;3.10;2.80;;;;;;;9.40;39.34;99867.09;10407229;28;20609;-66
2023/04/19 20:45:41;;;;;;;4.93;3.13;;;;;;;8.58;40.44;99776.66;10409291;28;20248;-67
2023/04/19 20:50:42;;;;;;;2.80;2.50;;;;;;;8.34;40.67;99736.72;10400302;28;20233;-68
2023/04/19 20:55:44;;;;;;;4.60;2.77;;;;;;;8.67;39.97;99807.66;10402844;28;20316;-66
2023/04/19 21:00:48;;;;;;;3.60;2.73;;;;;;;8.78;40.20;99805.59;10402354;28;20245;-69
2023/04/19 21:05:50;;;;;;;4.20;2.67;;;;;;;7.77;41.50;99663.03;10408273;28;20232;-67
2023/04/19 21:10:52;;;;;;;3.17;2.87;;;;;;;8.58;40.56;99784.66;10405230;28;20249;-69
2023/04/19 21:15:54;;;;;;;3.37;3.07;;;;;;;8.91;40.19;99821.94;10400773;28;20815;-69
2023/04/19 21:20:57;;;;;;;4.10;3.20;;;;;;;8.70;40.40;99782.44;10406825;28;20300;-69
2023/04/19 21:26:01;;;;;;;4.03;3.30;;;;;;;9.18;40.54;99828.66;10381883;28;20266;-67
2023/04/19 21:31:03;;;;;;;3.10;2.80;;;;;;;10.13;39.23;99881.03;10398339;28;20237;-67
2023/04/19 21:36:05;;;;;;;2.97;2.50;;;;;;;8.78;40.22;99765.59;10396185;28;20925;-67
2023/04/19 21:41:07;;;;;;;4.13;2.80;;;;;;;10.52;39.29;99895.25;10396284;28;20225;-67
2023/04/19 21:46:08;;;;;;;3.00;2.70;;;;;;;8.82;40.62;99773.03;10396789;28;20286;-67
2023/04/19 21:51:12;;;;;;;3.00;2.80;;;;;;;9.18;40.55;99809.97;10399921;28;20232;-68
2023/04/19 21:56:14;;;;;;;3.00;2.77;;;;;;;8.45;41.20;99728.34;10397283;28;20256;-67
2023/04/19 22:01:15;;;;;;;3.47;3.27;;;;;;;9.10;40.20;99799.31;10397105;28;20251;-69
2023/04/19 22:06:18;;;;;;;3.87;2.80;;;;;;;8.38;40.77;99717.53;10397172;28;20232;-67
2023/04/19 22:11:19;;;;;;;3.30;3.00;;;;;;;9.19;40.34;99803.59;10402942;28;20239;-69
2023/04/19 22:16:21;;;;;;;3.07;2.50;;;;;;;9.30;40.16;99817.56;10393531;28;20237;-67
2023/04/19 22:21:23;;;;;;;4.00;3.20;;;;;;;8.32;40.07;99718.25;10403156;28;20248;-69
2023/04/19 22:26:25;;;;;;;3.07;2.70;;;;;;;7.85;40.59;99633.75;10398179;28;20610;-70
2023/04/19 22:31:27;;;;;;;4.93;3.10;;;;;;;7.64;40.75;99602.28;10394723;28;20255;-67
2023/04/19 22:36:29;;;;;;;5.23;3.17;;;;;;;7.57;40.67;99606.63;10401624;28;20226;-66
2023/04/19 22:41:32;;;;;;;3.57;3.10;;;;;;;8.12;40.85;99680.47;10394903;28;20330;-69
2023/04/19 22:46:35;;;;;;;3.47;3.17;;;;;;;8.02;40.55;99655.84;10402051;28;20259;-69
2023/04/19 22:51:37;;;;;;;2.97;2.77;;;;;;;7.76;41.17;99621.41;10398480;28;20224;-69
2023/04/19 22:56:39;;;;;;;4.30;3.37;;;;;;;8.13;41.24;99691.94;10397385;28;20284;-66
2023/04/19 23:01:40;;;;;;;3.83;3.37;;;;;;;8.76;40.22;99748.94;10392153;28;20240;-67
2023/04/19 23:06:43;;;;;;;3.37;3.07;;;;;;;8.48;40.53;99718.16;10381030;28;20239;-68
2023/04/19 23:11:46;;;;;;;4.63;3.30;;;;;;;8.34;40.84;99700.22;10397178;28;20671;-68
2023/04/19 23:16:47;;;;;;;5.27;3.17;;;;;;;8.19;40.54;99670.78;10391400;28;20283;-67
2023/04/19 23:21:49;;;;;;;4.43;3.30;;;;;;;7.79;41.28;99618.41;10400517;28;20236;-70
2023/04/19 23:26:51;;;;;;;4.67;3.47;;;;;;;7.41;41.22;99562.19;10403513;28;20236;-67
2023/04/19 23:31:52;;;;;;;5.43;3.27;;;;;;;7.25;41.52;99539.94;10390534;28;20252;-69
2023/04/19 23:36:55;;;;;;;3.57;3.00;;;;;;;7.97;40.83;99651.03;10395884;28;20262;-67
2023/04/19 23:41:57;;;;;;;3.60;2.77;;;;;;;6.79;41.72;99481.94;10395755;28;20240;-67
2023/04/19 23:46:59;;;;;;;3.90;3.20;;;;;;;8.13;40.25;99665.31;10389206;28;20237;-69
2023/04/19 23:52:04;;;;;;;4.23;3.03;;;;;;;7.31;41.49;99559.75;10400131;28;20238;-69
2023/04/19 23:57:05;;;;;;;4.10;3.47;;;;;;;6.86;42.21;99494.59;10392003;28;20231;-66
